Time;durP1;ratioP1;P1;durP2;ratioP2;P2;SDS_P1;SDS_P2;PMS_P1;PMS_P2;Temp;Humidity;BMP_temperature;BMP_pressure;BME280_temperature;BME280_humidity;BME280_pressure;Samples;Min_cycle;Max_cycle;Signal;HPM_P1;HPM_P2
2022/08/21 00:00:07;;;;;;;16.13;15.43;;;;;;;-141.02;100.00;88155.22;5136828;27;20200;-79
2022/08/21 00:02:34;;;;;;;15.93;15.23;;;;;;;-141.02;100.00;87978.19;5136802;27;20783;-79
2022/08/21 00:05:01;;;;;;;17.15;16.35;;;;;;;-141.02;100.00;87871.19;5136435;27;20650;-78
2022/08/21 00:07:28;;;;;;;16.70;16.00;;;;;;;-141.02;100.00;87791.44;5136599;27;20558;-78
2022/08/21 00:09:55;;;;;;;16.38;15.68;;;;;;;-141.02;100.00;87711.69;5136246;27;20576;-78
2022/08/21 00:12:24;;;;;;;17.38;16.58;;;;;;;-141.02;100.00;87668.88;5136546;27;20283;-79
2022/08/21 00:14:51;;;;;;;18.10;17.30;;;;;;;-141.02;100.00;87684.44;5136436;27;20306;-79
2022/08/21 00:17:18;;;;;;;17.70;16.90;;;;;;;-141.02;100.00;87633.88;5136444;27;20284;-78
2022/08/21 00:19:45;;;;;;;19.17;18.27;;;;;;;-141.02;100.00;87661.09;5136099;27;20275;-80
2022/08/21 00:22:12;;;;;;;19.63;18.63;;;;;;;-141.02;100.00;87637.75;5135790;27;20281;-80
2022/08/21 00:24:40;;;;;;;19.70;18.70;;;;;;;-141.02;100.00;87643.59;5136075;27;20279;-80
2022/08/21 00:27:07;;;;;;;20.00;19.00;;;;;;;-141.02;100.00;87630.00;5136205;27;20279;-80
2022/08/21 00:29:35;;;;;;;19.77;18.77;;;;;;;-141.02;100.00;87665.00;5135978;27;20200;-79
2022/08/21 00:32:02;;;;;;;20.10;19.10;;;;;;;-141.02;100.00;87688.34;5136279;27;20226;-80
2022/08/21 00:34:29;;;;;;;16.70;15.90;;;;;;;-141.02;100.00;87771.97;5136137;27;20224;-80
2022/08/21 00:36:56;;;;;;;19.50;18.60;;;;;;;-141.02;100.00;87853.69;5135880;27;20279;-80
2022/08/21 00:39:23;;;;;;;19.00;18.10;;;;;;;-141.02;100.00;87962.63;5136051;27;20188;-79
2022/08/21 00:41:51;;;;;;;19.00;18.10;;;;;;;-141.02;100.00;88020.97;5135692;27;20197;-79
2022/08/21 00:44:18;;;;;;;18.40;17.50;;;;;;;-141.02;100.00;88081.28;5135434;27;20291;-79
2022/08/21 00:46:46;;;;;;;19.15;18.25;;;;;;;-141.02;100.00;88100.75;5135912;27;20257;-79
2022/08/21 00:49:14;;;;;;;19.65;18.75;;;;;;;-141.02;100.00;88081.28;5135834;27;20271;-79
2022/08/21 00:51:46;;;;;;;19.98;18.98;;;;;;;-141.02;100.00;88081.28;5135771;27;20224;-79
2022/08/21 00:54:14;;;;;;;19.55;18.55;;;;;;;-141.02;100.00;88077.41;5135457;27;20254;-79
2022/08/21 00:56:41;;;;;;;20.27;19.27;;;;;;;-141.02;100.00;88034.59;5135395;27;20275;-79
2022/08/21 00:59:09;;;;;;;20.30;19.30;;;;;;;-141.02;100.00;88034.59;5135704;27;20188;-79
2022/08/21 01:01:36;;;;;;;19.77;18.77;;;;;;;-141.02;100.00;88038.50;5135583;27;20614;-79
2022/08/21 01:04:05;;;;;;;20.92;19.83;;;;;;;-141.02;100.00;88050.16;5135294;27;20292;-79
2022/08/21 01:06:32;;;;;;;20.73;19.63;;;;;;;-141.02;100.00;88022.94;5135519;27;20272;-79
2022/08/21 01:08:59;;;;;;;21.27;20.17;;;;;;;-141.02;100.00;88011.25;5135406;27;20275;-79
2022/08/21 01:11:26;;;;;;;19.13;18.13;;;;;;;-141.02;100.00;87976.25;5135162;27;20203;-79
2022/08/21 01:13:54;;;;;;;19.92;18.92;;;;;;;-141.02;100.00;88011.25;5135266;27;20232;-79
2022/08/21 01:16:23;;;;;;;20.02;19.02;;;;;;;-141.02;100.00;87952.91;5135003;27;20199;-80
2022/08/21 01:18:51;;;;;;;16.42;15.63;;;;;;;-141.02;100.00;88057.94;5134925;27;20196;-79
2022/08/21 01:21:22;;;;;;;17.95;17.05;;;;;;;-141.02;100.00;88137.72;5134992;27;20195;-80
2022/08/21 01:23:53;;;;;;;18.52;17.55;;;;;;;-141.02;100.00;88174.66;5135217;27;20181;-80
2022/08/21 01:26:22;;;;;;;19.35;18.35;;;;;;;-141.02;100.00;88217.47;5134884;27;20576;-80
2022/08/21 01:28:55;;;;;;;19.33;18.33;;;;;;;-141.02;100.00;88254.44;5135092;27;20628;-80
2022/08/21 01:31:24;;;;;;;19.85;18.85;;;;;;;-141.02;100.00;88266.09;5135054;27;20184;-79
2022/08/21 01:33:51;;;;;;;20.60;19.50;;;;;;;-141.02;100.00;88322.53;5134892;27;20276;-79
2022/08/21 01:36:20;;;;;;;20.67;19.58;;;;;;;-141.02;100.00;88306.97;5134927;27;20197;-79
2022/08/21 01:38:47;;;;;;;20.30;19.20;;;;;;;-141.02;100.00;88369.22;5134887;27;20196;-79
2022/08/21 01:41:14;;;;;;;20.80;19.70;;;;;;;-141.02;100.00;88355.59;5134790;27;20208;-79
2022/08/21 01:43:42;;;;;;;21.02;19.92;;;;;;;-141.02;100.00;88462.59;5134477;27;20199;-78
2022/08/21 01:46:10;;;;;;;21.00;19.90;;;;;;;-141.02;100.00;88450.94;5134462;27;20621;-78
2022/08/21 01:48:38;;;;;;;21.13;20.02;;;;;;;-141.02;100.00;88454.81;5134325;27;20189;-78
2022/08/21 01:51:06;;;;;;;20.40;19.30;;;;;;;-141.02;100.00;88509.31;5134937;27;20241;-78
2022/08/21 01:53:35;;;;;;;20.60;19.50;;;;;;;-141.02;100.00;88520.97;5134578;27;20220;-78
2022/08/21 01:56:05;;;;;;;20.08;18.98;;;;;;;-141.02;100.00;88326.41;5133246;27;20716;-78
2022/08/21 01:58:33;;;;;;;19.35;18.35;;;;;;;-141.02;100.00;88447.03;5134164;27;20678;-78
2022/08/21 02:01:01;;;;;;;19.58;18.58;;;;;;;-141.02;100.00;88406.19;5134122;27;20697;-78
2022/08/21 02:03:28;;;;;;;19.48;18.48;;;;;;;-141.02;100.00;88254.44;5134206;27;20195;-78
2022/08/21 02:05:56;;;;;;;17.00;16.10;;;;;;;-141.02;100.00;88392.56;5134537;27;20201;-77
2022/08/21 02:08:23;;;;;;;19.60;18.60;;;;;;;-141.02;100.00;88435.38;5134297;27;20192;-78
2022/08/21 02:10:52;;;;;;;19.02;18.05;;;;;;;-141.02;100.00;88470.38;5134183;27;20271;-78
2022/08/21 02:13:20;;;;;;;18.58;17.67;;;;;;;-141.02;100.00;88482.06;5134078;27;20291;-78
2022/08/21 02:15:47;;;;;;;19.45;18.45;;;;;;;-141.02;100.00;88464.56;5133729;27;20311;-79
2022/08/21 02:18:14;;;;;;;19.17;18.20;;;;;;;-141.02;100.00;88470.38;5134073;27;20239;-78
2022/08/21 02:20:45;;;;;;;20.35;19.35;;;;;;;-141.02;100.00;88466.50;5134092;27;20215;-78
2022/08/21 02:23:14;;;;;;;20.30;19.30;;;;;;;-141.02;100.00;88443.16;5133817;27;20224;-78
2022/08/21 02:25:41;;;;;;;20.40;19.40;;;;;;;-141.02;100.00;88377.00;5133728;27;20223;-78
2022/08/21 02:28:11;;;;;;;19.95;18.95;;;;;;;-141.02;100.00;88349.75;5133888;27;20227;-78
2022/08/21 02:30:41;;;;;;;20.05;19.05;;;;;;;-141.02;100.00;88322.53;5133669;27;20185;-78
2022/08/21 02:33:10;;;;;;;18.83;17.92;;;;;;;-141.02;100.00;88324.47;5133502;27;20184;-78
2022/08/21 02:35:38;;;;;;;18.85;17.95;;;;;;;-141.02;100.00;88271.94;5133799;27;20314;-78
2022/08/21 02:38:07;;;;;;;19.88;18.88;;;;;;;-141.02;100.00;88213.56;5134041;27;20196;-78
2022/08/21 02:40:39;;;;;;;19.98;18.98;;;;;;;-141.02;100.00;88303.06;5133977;27;20196;-78
2022/08/21 02:43:09;;;;;;;19.95;18.95;;;;;;;-141.02;100.00;88252.47;5133795;27;20184;-78
2022/08/21 02:45:37;;;;;;;21.58;20.48;;;;;;;-141.02;100.00;88312.78;5133654;27;20224;-78
2022/08/21 02:48:06;;;;;;;21.63;20.52;;;;;;;-141.02;100.00;88306.97;5133292;27;20217;-78
2022/08/21 02:50:36;;;;;;;17.85;16.95;;;;;;;-141.02;100.00;88264.16;5133550;27;20236;-78
2022/08/21 02:53:05;;;;;;;19.25;18.25;;;;;;;-141.02;100.00;88326.41;5133596;27;20224;-78
2022/08/21 02:55:33;;;;;;;21.02;19.92;;;;;;;-141.02;100.00;88355.59;5133046;27;20224;-78
2022/08/21 02:58:00;;;;;;;21.08;19.98;;;;;;;-141.02;100.00;88369.22;5133189;27;20235;-77
2022/08/21 03:00:30;;;;;;;20.33;19.23;;;;;;;-141.02;100.00;88384.78;5133505;27;20271;-78
2022/08/21 03:02:58;;;;;;;21.70;20.50;;;;;;;-141.02;100.00;88412.03;5133084;27;20287;-78
2022/08/21 03:05:26;;;;;;;21.40;20.20;;;;;;;-141.02;100.00;88396.47;5133103;27;20231;-78
2022/08/21 03:07:53;;;;;;;21.23;20.02;;;;;;;-141.02;100.00;88345.88;5132845;27;20235;-78
2022/08/21 03:10:21;;;;;;;20.50;19.40;;;;;;;-141.02;100.00;88419.81;5133378;27;20245;-77
2022/08/21 03:12:49;;;;;;;21.02;19.92;;;;;;;-141.02;100.00;88493.75;5132876;27;20667;-78
2022/08/21 03:15:19;;;;;;;19.60;18.60;;;;;;;-141.02;100.00;88485.94;5133196;28;20276;-78
2022/08/21 03:17:48;;;;;;;19.58;18.58;;;;;;;-141.02;100.00;88520.97;5133288;28;20267;-78
2022/08/21 03:20:17;;;;;;;19.65;18.65;;;;;;;-141.02;100.00;88530.69;5132899;28;20201;-78
2022/08/21 03:22:44;;;;;;;20.90;19.90;;;;;;;-141.02;100.00;88544.31;5132974;28;20224;-78
2022/08/21 03:25:11;;;;;;;22.48;21.27;;;;;;;-141.02;100.00;88565.72;5133191;27;20241;-78
2022/08/21 03:27:39;;;;;;;21.67;20.58;;;;;;;-141.02;100.00;88532.66;5133139;28;20192;-78
2022/08/21 03:30:08;;;;;;;20.77;19.77;;;;;;;-141.02;100.00;88548.22;5133405;27;20237;-78
2022/08/21 03:32:36;;;;;;;21.70;20.60;;;;;;;-141.02;100.00;88544.31;5133202;27;20581;-77
2022/08/21 03:35:05;;;;;;;21.17;20.08;;;;;;;-141.02;100.00;88567.66;5132954;28;20280;-78
2022/08/21 03:37:33;;;;;;;19.85;18.85;;;;;;;-141.02;100.00;88622.16;5133420;28;20241;-78
2022/08/21 03:40:00;;;;;;;18.83;17.90;;;;;;;-141.02;100.00;88598.81;5132784;28;20202;-77
2022/08/21 03:42:27;;;;;;;20.27;19.27;;;;;;;-141.02;100.00;88618.25;5133010;27;20545;-78
2022/08/21 03:44:54;;;;;;;18.45;17.45;;;;;;;-141.02;100.00;88598.81;5132680;28;20192;-79
2022/08/21 03:47:22;;;;;;;18.52;17.52;;;;;;;-141.02;100.00;88587.13;5132657;28;20227;-77
2022/08/21 03:49:49;;;;;;;18.42;17.42;;;;;;;-141.02;100.00;88550.16;5132697;27;20199;-78
2022/08/21 03:52:18;;;;;;;19.55;18.08;;;;;;;-141.02;100.00;88552.09;5132670;27;20250;-78
2022/08/21 03:54:46;;;;;;;17.80;16.90;;;;;;;-141.02;100.00;88528.75;5132820;27;20196;-78
2022/08/21 03:57:13;;;;;;;17.77;16.88;;;;;;;-141.02;100.00;88520.97;5132513;28;20279;-77
2022/08/21 03:59:40;;;;;;;18.50;17.60;;;;;;;-141.02;100.00;88462.59;5132746;28;20231;-78
2022/08/21 04:02:08;;;;;;;18.42;17.52;;;;;;;-141.02;100.00;88338.09;5132857;27;20613;-78
2022/08/21 04:04:35;;;;;;;18.65;17.75;;;;;;;-141.02;100.00;88493.75;5132517;27;20200;-78
2022/08/21 04:07:03;;;;;;;17.98;17.08;;;;;;;-141.02;100.00;88485.94;5132837;27;20224;-77
2022/08/21 04:09:32;;;;;;;18.83;17.92;;;;;;;-141.02;100.00;88507.34;5132797;27;20196;-79
2022/08/21 04:12:00;;;;;;;18.48;17.58;;;;;;;-141.02;100.00;88425.63;5132427;28;20678;-78
2022/08/21 04:14:27;;;;;;;18.10;17.20;;;;;;;-141.02;100.00;88431.47;5132679;28;20192;-78
2022/08/21 04:16:54;;;;;;;19.30;18.40;;;;;;;-141.02;100.00;88419.81;5132640;27;20277;-78
2022/08/21 04:19:21;;;;;;;18.40;17.50;;;;;;;-141.02;100.00;88431.47;5133633;27;20618;-78
2022/08/21 04:21:49;;;;;;;18.10;17.20;;;;;;;-141.02;100.00;88417.84;5136362;27;20620;-78
2022/08/21 04:24:16;;;;;;;16.27;15.48;;;;;;;-141.02;100.00;88400.34;5136057;27;20287;-78
2022/08/21 04:26:45;;;;;;;17.73;16.83;;;;;;;-141.02;100.00;88419.81;5136332;27;20204;-78
2022/08/21 04:29:12;;;;;;;18.00;17.10;;;;;;;-141.02;100.00;88421.75;5136163;27;20649;-78
2022/08/21 04:31:39;;;;;;;17.63;16.73;;;;;;;-141.02;100.00;88388.69;5136469;27;20275;-78
2022/08/21 04:34:06;;;;;;;17.95;17.05;;;;;;;-141.02;100.00;88229.13;5136150;27;20200;-78
2022/08/21 04:36:34;;;;;;;18.20;17.30;;;;;;;-141.02;100.00;88334.19;5136111;27;20255;-78
2022/08/21 04:39:01;;;;;;;18.15;17.25;;;;;;;-141.02;100.00;88299.19;5135799;27;20734;-78
2022/08/21 04:41:28;;;;;;;17.33;16.42;;;;;;;-141.02;100.00;88343.94;5136566;27;20192;-77
2022/08/21 04:43:57;;;;;;;17.52;16.63;;;;;;;-141.02;100.00;88303.06;5135809;27;20200;-78
2022/08/21 04:46:24;;;;;;;17.58;16.67;;;;;;;-141.02;100.00;88305.00;5135577;27;20660;-77
2022/08/21 04:48:51;;;;;;;16.85;16.05;;;;;;;-141.02;100.00;88291.41;5135560;27;20709;-77
2022/08/21 04:51:20;;;;;;;16.75;15.95;;;;;;;-141.02;100.00;88252.47;5135762;27;20242;-77
2022/08/21 04:53:51;;;;;;;17.50;16.70;;;;;;;-141.02;100.00;88229.13;5135734;27;20196;-78
2022/08/21 04:56:23;;;;;;;16.40;15.60;;;;;;;-141.02;100.00;88199.97;5135769;27;20212;-77
2022/08/21 04:58:52;;;;;;;16.52;15.73;;;;;;;-141.02;100.00;88186.34;5136176;27;20206;-78
2022/08/21 05:01:24;;;;;;;16.20;15.40;;;;;;;-141.02;100.00;88163.00;5135329;27;20189;-78
2022/08/21 05:03:56;;;;;;;15.88;15.18;;;;;;;-141.02;100.00;88089.06;5135274;27;20231;-78
2022/08/21 05:06:24;;;;;;;16.00;15.30;;;;;;;-141.02;100.00;88026.81;5135625;27;20180;-78
2022/08/21 05:08:56;;;;;;;14.40;13.80;;;;;;;-141.02;100.00;87972.34;5135066;27;20252;-78
2022/08/21 05:11:23;;;;;;;13.60;13.10;;;;;;;-141.02;100.00;87925.66;5135503;27;20308;-78
2022/08/21 05:13:50;;;;;;;14.30;13.80;;;;;;;-141.02;100.00;87797.28;5135284;27;20352;-77
2022/08/21 05:16:18;;;;;;;13.63;13.13;;;;;;;-141.02;100.00;87579.41;5135261;27;20228;-77
2022/08/21 05:18:46;;;;;;;12.73;12.32;;;;;;;-141.02;100.00;87618.31;5135034;27;20291;-78
2022/08/21 05:21:13;;;;;;;13.43;12.93;;;;;;;-141.02;100.00;87548.28;5134703;27;20193;-78
2022/08/21 05:23:40;;;;;;;12.85;12.45;;;;;;;-141.02;100.00;87396.56;5135226;27;20185;-78
2022/08/21 05:26:07;;;;;;;13.15;12.75;;;;;;;-141.02;100.00;87299.31;5134993;27;20245;-77
2022/08/21 05:28:34;;;;;;;12.70;12.30;;;;;;;-141.02;100.00;87295.44;5135082;27;20249;-78
2022/08/21 05:31:01;;;;;;;11.30;11.00;;;;;;;-141.02;100.00;87244.88;5134957;27;20192;-78
2022/08/21 05:33:28;;;;;;;11.40;11.00;;;;;;;-141.02;100.00;87221.53;5134833;27;20238;-78
2022/08/21 05:35:57;;;;;;;12.75;12.25;;;;;;;-141.02;100.00;87143.72;5134622;27;20220;-78
2022/08/21 05:38:26;;;;;;;12.13;11.73;;;;;;;-141.02;100.00;86933.69;5134908;27;20242;-78
2022/08/21 05:40:54;;;;;;;11.80;11.40;;;;;;;-141.02;100.00;87005.66;5134654;27;20203;-79
2022/08/21 05:43:21;;;;;;;12.27;11.77;;;;;;;-141.02;100.00;86933.69;5134543;27;20666;-78
2022/08/21 05:45:48;;;;;;;13.00;12.40;;;;;;;-141.02;100.00;86764.50;5134693;27;20271;-78
2022/08/21 05:48:17;;;;;;;13.20;12.60;;;;;;;-141.02;100.00;86587.53;5134677;27;20242;-79
2022/08/21 05:50:45;;;;;;;13.68;12.98;;;;;;;-141.02;100.00;86550.59;5134748;27;20282;-78
2022/08/21 05:53:14;;;;;;;13.80;13.10;;;;;;;-141.02;100.00;86490.31;5135150;27;20207;-78
2022/08/21 05:55:43;;;;;;;14.00;13.30;;;;;;;-141.02;100.00;86443.66;5134629;27;20259;-78
2022/08/21 05:58:10;;;;;;;14.40;13.60;;;;;;;-141.02;100.00;86408.66;5134472;27;20283;-78
2022/08/21 06:00:37;;;;;;;14.20;13.50;;;;;;;-141.02;100.00;86408.66;5134455;27;20257;-78
2022/08/21 06:03:04;;;;;;;14.52;13.82;;;;;;;-141.02;100.00;86400.88;5134087;27;20199;-78
2022/08/21 06:05:31;;;;;;;14.50;13.70;;;;;;;-141.02;100.00;86350.31;5134367;27;20241;-78
2022/08/21 06:07:58;;;;;;;14.55;13.75;;;;;;;-141.02;100.00;86362.00;5134408;27;20241;-78
2022/08/21 06:10:27;;;;;;;14.40;13.70;;;;;;;-141.02;100.00;86348.38;5134535;27;20253;-78
2022/08/21 06:12:55;;;;;;;14.25;13.55;;;;;;;-141.02;100.00;86288.09;5133928;27;20721;-78
2022/08/21 06:15:22;;;;;;;13.02;12.43;;;;;;;-141.02;100.00;86262.81;5134188;27;20193;-78
2022/08/21 06:17:49;;;;;;;13.77;13.07;;;;;;;-141.02;100.00;86260.88;5134409;27;20269;-78
2022/08/21 06:20:16;;;;;;;13.55;12.85;;;;;;;-141.02;100.00;86220.03;5133999;27;20693;-79
2022/08/21 06:22:43;;;;;;;14.00;13.30;;;;;;;-141.02;100.00;85837.03;5133719;27;20281;-78
2022/08/21 06:25:10;;;;;;;13.68;13.07;;;;;;;-141.02;100.00;86117.00;5133697;27;20260;-78
2022/08/21 06:27:39;;;;;;;14.32;13.63;;;;;;;-141.02;100.00;86047.00;5133940;27;20204;-77
2022/08/21 06:30:08;;;;;;;15.98;15.07;;;;;;;-141.02;100.00;86050.91;5133560;27;20188;-79
2022/08/21 06:32:36;;;;;;;18.80;17.60;;;;;;;-141.02;100.00;85949.78;5133578;27;20677;-77
2022/08/21 06:35:04;;;;;;;19.90;18.60;;;;;;;-141.02;100.00;85809.81;5133441;27;20590;-79
2022/08/21 06:37:31;;;;;;;18.38;17.17;;;;;;;-141.02;100.00;85710.66;5133415;27;20322;-78
2022/08/21 06:39:58;;;;;;;19.88;18.48;;;;;;;-141.02;100.00;85640.69;5133428;27;20242;-78
2022/08/21 06:42:27;;;;;;;19.48;18.17;;;;;;;-141.02;100.00;85615.41;5133484;27;20226;-79
2022/08/21 06:44:56;;;;;;;19.65;18.35;;;;;;;-141.02;100.00;85566.81;5133586;27;20192;-78
2022/08/21 06:47:22;;;;;;;18.23;17.13;;;;;;;-141.02;100.00;85417.13;5133553;27;20195;-79
2022/08/21 06:49:49;;;;;;;17.67;16.67;;;;;;;-141.02;100.00;85275.22;5133785;27;20198;-79
2022/08/21 06:52:17;;;;;;;18.55;17.45;;;;;;;-141.02;100.00;85164.44;5133336;27;20714;-78
2022/08/21 06:54:44;;;;;;;19.02;17.92;;;;;;;-141.02;100.00;85131.38;5133585;27;20249;-77
2022/08/21 06:57:12;;;;;;;19.70;18.60;;;;;;;-141.02;100.00;85059.47;5133454;27;20260;-78
2022/08/21 06:59:39;;;;;;;18.85;17.65;;;;;;;-141.02;100.00;85051.69;5133240;27;20327;-78
2022/08/21 07:02:08;;;;;;;18.20;17.20;;;;;;;-141.02;100.00;84919.53;5133200;27;20622;-77
2022/08/21 07:04:35;;;;;;;17.80;16.80;;;;;;;-141.02;100.00;84942.84;5133733;27;20753;-77
2022/08/21 07:07:02;;;;;;;16.95;16.05;;;;;;;-141.02;100.00;84970.06;5133363;27;20230;-76
2022/08/21 07:09:29;;;;;;;17.10;16.10;;;;;;;-141.02;100.00;84985.59;5133028;27;20306;-77
2022/08/21 07:11:57;;;;;;;16.17;15.38;;;;;;;-141.02;100.00;84810.69;5133319;27;20283;-76
2022/08/21 07:14:24;;;;;;;19.42;18.30;;;;;;;-141.02;100.00;84793.19;5133036;27;20192;-75
2022/08/21 07:16:51;;;;;;;19.77;18.58;;;;;;;-141.02;100.00;84764.03;5133131;28;20235;-75
2022/08/21 07:19:20;;;;;;;19.90;18.70;;;;;;;-141.02;100.00;84684.34;5132947;28;20287;-75
2022/08/21 07:21:47;;;;;;;19.10;18.00;;;;;;;-141.02;100.00;84661.03;5132982;27;20289;-75
2022/08/21 07:24:14;;;;;;;18.58;17.58;;;;;;;-141.02;100.00;84662.97;5132945;27;20213;-74
2022/08/21 07:26:42;;;;;;;19.20;18.10;;;;;;;-141.02;100.00;84701.84;5132903;28;20192;-75
2022/08/21 07:29:09;;;;;;;18.35;17.35;;;;;;;-141.02;100.00;84622.16;5133028;28;20678;-74
2022/08/21 07:31:36;;;;;;;18.25;17.35;;;;;;;-141.02;100.00;84699.91;5133151;28;20200;-74
2022/08/21 07:34:03;;;;;;;17.90;17.10;;;;;;;-141.02;100.00;84593.00;5133028;28;20650;-75
2022/08/21 07:36:32;;;;;;;17.95;17.05;;;;;;;-141.02;100.00;84577.47;5132728;28;20264;-74
2022/08/21 07:38:59;;;;;;;17.65;16.75;;;;;;;-141.02;100.00;84635.78;5133563;28;20197;-73
2022/08/21 07:41:28;;;;;;;18.83;17.83;;;;;;;-141.02;100.00;84561.91;5133039;28;20196;-73
2022/08/21 07:43:57;;;;;;;19.35;18.25;;;;;;;-141.02;100.00;84472.53;5132761;28;20204;-74
2022/08/21 07:46:24;;;;;;;18.92;17.92;;;;;;;-141.02;100.00;84513.34;5133026;27;20245;-75
2022/08/21 07:48:51;;;;;;;18.60;17.60;;;;;;;-141.02;100.00;84523.06;5133004;27;20193;-74
2022/08/21 07:51:19;;;;;;;19.05;17.95;;;;;;;-141.02;100.00;84503.63;5132897;27;20608;-74
2022/08/21 07:53:51;;;;;;;18.83;17.83;;;;;;;-141.02;100.00;84561.91;5133249;27;20248;-75
2022/08/21 07:56:18;;;;;;;17.40;16.50;;;;;;;-141.02;100.00;84441.44;5136928;27;20250;-74
2022/08/21 07:58:45;;;;;;;17.23;16.33;;;;;;;-141.02;100.00;84453.09;5136895;27;20661;-74
2022/08/21 08:01:13;;;;;;;18.20;17.20;;;;;;;-141.02;100.00;84472.53;5136538;27;20188;-73
2022/08/21 08:03:40;;;;;;;19.48;18.38;;;;;;;-141.02;100.00;84422.00;5136496;27;20283;-73
2022/08/21 08:06:11;;;;;;;19.17;18.08;;;;;;;-141.02;100.00;84130.50;5136793;27;20199;-73
2022/08/21 08:08:39;;;;;;;19.58;18.48;;;;;;;-141.02;100.00;84361.75;5136625;27;20196;-72
2022/08/21 08:11:10;;;;;;;20.40;19.20;;;;;;;-141.02;100.00;84418.13;5136710;27;20272;-72
2022/08/21 08:13:40;;;;;;;20.20;19.00;;;;;;;-141.02;100.00;84392.84;5136280;27;20558;-74
2022/08/21 08:16:07;;;;;;;18.98;17.77;;;;;;;-141.02;100.00;84270.41;5136220;27;20199;-71
2022/08/21 08:18:35;;;;;;;20.40;19.10;;;;;;;-141.02;100.00;84196.56;5136534;27;20224;-73
2022/08/21 08:21:02;;;;;;;20.77;19.48;;;;;;;-141.02;100.00;84225.72;5136175;27;20236;-75
2022/08/21 08:23:30;;;;;;;63.67;35.95;;;;;;;-141.02;100.00;84177.16;5135973;27;20224;-75
2022/08/21 08:25:57;;;;;;;20.75;19.35;;;;;;;-141.02;97.89;84169.38;5136344;27;20198;-76
2022/08/21 08:28:26;;;;;;;20.38;19.08;;;;;;;-141.02;100.00;84194.63;5136274;27;20661;-73
2022/08/21 08:30:54;;;;;;;19.20;18.00;;;;;;;-141.02;100.00;84200.47;5136232;27;20207;-74
2022/08/21 08:33:21;;;;;;;21.55;20.25;;;;;;;-141.02;100.00;84126.63;5136319;27;20192;-72
2022/08/21 08:35:51;;;;;;;21.65;20.35;;;;;;;-141.02;100.00;84078.03;5135953;27;20200;-76
2022/08/21 08:38:20;;;;;;;22.38;20.98;;;;;;;-141.02;100.00;84045.00;5135756;27;20228;-72
2022/08/21 08:40:53;;;;;;;21.25;19.90;;;;;;;-141.02;94.61;83984.78;5135814;27;20192;-73
2022/08/21 08:43:21;;;;;;;23.13;21.63;;;;;;;-141.02;96.10;83994.50;5136095;27;20272;-74
2022/08/21 08:45:53;;;;;;;22.80;21.23;;;;;;;-141.02;91.54;83897.34;5136025;27;20196;-75
2022/08/21 08:48:40;;;;;;;22.85;21.25;;;;;;;-141.02;92.12;83895.41;5135639;27;20279;-76
2022/08/21 08:51:15;;;;;;;22.83;21.33;;;;;;;-141.02;91.14;83842.94;5135976;27;20575;-74
2022/08/21 08:53:50;;;;;;;21.20;19.70;;;;;;;-141.02;90.54;83817.69;5136189;27;20218;-75
2022/08/21 08:56:22;;;;;;;22.85;21.35;;;;;;;-141.02;89.94;83765.22;5135750;27;20195;-79
2022/08/21 08:58:51;;;;;;;23.10;21.40;;;;;;;-141.02;89.92;83806.00;5135499;27;20229;-75
2022/08/21 09:01:21;;;;;;;22.20;20.70;;;;;;;-141.02;88.76;83743.84;5135698;27;20335;-77
2022/08/21 09:03:51;;;;;;;21.67;20.27;;;;;;;-141.02;87.04;83706.94;5136191;27;20220;-76
2022/08/21 09:06:35;;;;;;;21.20;19.80;;;;;;;-141.02;89.18;83565.09;5135762;27;20226;-73
2022/08/21 09:09:14;;;;;;;21.02;19.63;;;;;;;-141.02;88.14;83623.38;5135605;27;20240;-74
2022/08/21 09:11:49;;;;;;;21.20;19.80;;;;;;;-141.02;89.18;83652.53;5135218;27;20220;-72
2022/08/21 09:14:26;;;;;;;21.60;20.10;;;;;;;-141.02;88.02;83563.16;5135404;27;20199;-75
2022/08/21 09:17:02;;;;;;;22.58;20.98;;;;;;;-141.02;80.06;83497.09;5135097;27;20205;-73
2022/08/21 09:19:46;;;;;;;21.35;19.85;;;;;;;-141.02;85.13;83642.81;5135440;27;20590;-75
2022/08/21 09:22:25;;;;;;;21.75;20.25;;;;;;;-141.02;85.73;83551.50;5134830;27;20239;-73
2022/08/21 09:25:02;;;;;;;21.33;19.83;;;;;;;-141.02;82.19;83460.19;5134902;27;20189;-73
2022/08/21 09:27:31;;;;;;;22.33;20.73;;;;;;;-141.02;82.52;83506.81;5134946;27;20199;-77
2022/08/21 09:29:58;;;;;;;23.45;21.75;;;;;;;-141.02;85.01;83489.31;5134857;27;20265;-78
2022/08/21 09:32:29;;;;;;;22.90;21.30;;;;;;;-141.02;81.59;83510.69;5134810;27;20200;-74
2022/08/21 09:34:59;;;;;;;20.90;19.40;;;;;;;-141.02;83.04;83510.69;5135018;27;20673;-73
2022/08/21 09:37:28;;;;;;;21.70;20.20;;;;;;;-141.02;82.82;83398.00;5134867;27;20615;-73
2022/08/21 09:39:57;;;;;;;23.63;21.92;;;;;;;-141.02;79.15;83431.03;5134959;27;20218;-72
2022/08/21 09:42:26;;;;;;;23.02;21.42;;;;;;;-141.02;82.09;83378.59;5134840;27;20200;-73
2022/08/21 09:45:11;;;;;;;22.92;21.33;;;;;;;-141.02;80.42;83283.41;5134793;27;20227;-73
2022/08/21 09:47:41;;;;;;;22.77;21.17;;;;;;;-141.02;78.59;83300.88;5134851;27;20245;-77
2022/08/21 09:50:11;;;;;;;22.80;21.20;;;;;;;-141.02;78.51;83316.41;5135056;27;20204;-73
2022/08/21 09:52:44;;;;;;;23.45;21.75;;;;;;;-141.02;79.22;83143.53;5134782;27;20274;-78
2022/08/21 09:58:01;;;;;;;23.33;21.73;;;;;;;-141.02;77.46;83124.09;5134018;27;20220;-76
2022/08/21 10:00:32;;;;;;;23.17;21.58;;;;;;;-141.02;76.89;83038.63;5134534;27;20634;-74
2022/08/21 10:03:13;;;;;;;23.83;22.13;;;;;;;-141.02;70.61;82986.19;5134458;27;20551;-73
2022/08/21 10:05:41;;;;;;;23.70;22.00;;;;;;;-141.02;72.20;82976.47;5134430;27;20192;-75
2022/08/21 10:08:18;;;;;;;23.83;22.13;;;;;;;-141.02;70.62;82976.47;5134750;27;20192;-72
2022/08/21 10:10:46;;;;;;;23.10;21.50;;;;;;;-141.02;73.94;82929.84;5134525;27;20600;-75
2022/08/21 10:13:17;;;;;;;22.33;20.63;;;;;;;-141.02;74.37;82898.75;5134325;27;20223;-82
2022/08/21 10:15:54;;;;;;;23.08;21.33;;;;;;;-141.02;70.16;82861.84;5133959;27;20185;-73
2022/08/21 10:18:28;;;;;;;23.40;21.60;;;;;;;-141.02;70.68;82803.59;5133446;27;20216;-79
2022/08/21 10:21:03;;;;;;;23.95;22.15;;;;;;;-141.02;69.55;82778.34;5133827;27;20184;-74
2022/08/21 10:23:42;;;;;;;23.70;21.90;;;;;;;-141.02;66.78;82669.56;5133919;27;20765;-76
2022/08/21 10:26:21;;;;;;;23.80;21.90;;;;;;;-141.02;65.36;82601.56;5133688;27;20579;-75
2022/08/21 10:29:01;;;;;;;24.55;22.55;;;;;;;-141.02;63.32;82603.53;5134041;27;20195;-73
2022/08/21 10:31:39;;;;;;;23.10;21.30;;;;;;;-141.02;67.58;82747.25;5133986;27;20188;-75
2022/08/21 10:34:22;;;;;;;24.85;22.95;;;;;;;-141.02;67.01;82723.94;5133626;27;20188;-75
2022/08/21 10:37:01;;;;;;;23.92;22.13;;;;;;;-141.02;68.57;82770.56;5133690;27;20638;-74
2022/08/21 10:39:34;;;;;;;23.30;21.40;;;;;;;-141.02;70.50;82762.78;5133523;27;20638;-74
2022/08/21 10:42:21;;;;;;;24.95;22.98;;;;;;;-141.02;70.45;82799.69;5133821;27;20233;-71
2022/08/21 10:45:02;;;;;;;23.00;21.20;;;;;;;-141.02;73.03;82826.88;5133325;27;20197;-71
2022/08/21 10:47:35;;;;;;;23.05;21.27;;;;;;;-141.02;74.59;82791.94;5133758;27;20237;-73
2022/08/21 10:50:11;;;;;;;21.40;19.80;;;;;;;-141.02;74.33;82731.72;5133384;27;20276;-72
2022/08/21 10:52:54;;;;;;;23.25;21.55;;;;;;;-141.02;74.48;82832.72;5133322;27;20199;-71
2022/08/21 10:55:23;;;;;;;21.33;19.65;;;;;;;-141.02;75.63;82881.28;5133557;27;20184;-74
2022/08/21 10:57:55;;;;;;;20.92;19.33;;;;;;;-141.02;75.08;82751.13;5133502;27;20337;-72
2022/08/21 11:00:25;;;;;;;20.88;19.27;;;;;;;-141.02;72.78;82811.34;5133201;27;20216;-72
2022/08/21 11:03:04;;;;;;;20.75;19.15;;;;;;;-141.02;74.55;82815.25;5133474;27;20279;-72
2022/08/21 11:05:36;;;;;;;21.00;19.40;;;;;;;-141.02;77.17;82881.28;5133380;27;20196;-73